Time;durP1;ratioP1;P1;durP2;ratioP2;P2;SDS_P1;SDS_P2;PMS_P1;PMS_P2;Temp;Humidity;BMP_temperature;BMP_pressure;BME280_temperature;BME280_humidity;BME280_pressure;Samples;Min_cycle;Max_cycle;Signal;HPM_P1;HPM_P2
2023/06/19 00:01:29;;;;;;;7.82;7.13;;;23.10;95.00;;;;;;5052455;28;20017;-90
2023/06/19 00:03:54;;;;;;;6.13;5.63;;;23.10;95.40;;;;;;5052954;28;20040;-90
2023/06/19 00:06:38;;;;;;;6.65;5.90;;;22.70;95.50;;;;;;5052447;28;20485;-91
2023/06/19 00:09:04;;;;;;;8.90;4.70;;;22.20;95.60;;;;;;5058607;28;20029;-90
2023/06/19 00:11:30;;;;;;;5.25;4.75;;;23.50;95.90;;;;;;5058257;28;20051;-91
2023/06/19 00:14:17;;;;;;;5.30;4.80;;;22.80;95.80;;;;;;5052043;28;20167;-90
2023/06/19 00:16:44;;;;;;;6.30;4.97;;;22.80;95.90;;;;;;5052947;28;20021;-90
2023/06/19 00:19:11;;;;;;;5.03;4.63;;;23.10;96.10;;;;;;5053221;28;20060;-92
2023/06/19 00:21:57;;;;;;;7.35;3.75;;;22.70;96.20;;;;;;5033953;28;20184;-91
2023/06/19 00:24:40;;;;;;;3.50;3.20;;;23.50;96.50;;;;;;5065568;28;20033;-91
2023/06/19 00:27:06;;;;;;;4.75;3.22;;;22.60;96.40;;;;;;5053572;28;20040;-89
2023/06/19 00:29:32;;;;;;;6.68;2.50;;;22.70;96.40;;;;;;5054721;28;20021;-91
2023/06/19 00:32:07;;;;;;;2.30;2.10;;;22.80;96.50;;;;;;5053510;28;20024;-90
2023/06/19 00:34:32;;;;;;;3.28;2.47;;;22.60;96.60;;;;;;5051339;28;20068;-91
2023/06/19 00:36:59;;;;;;;2.20;2.10;;;22.70;97.00;;;;;;5052568;28;20118;-91
2023/06/19 00:39:43;;;;;;;2.55;2.35;;;22.60;96.90;;;;;;5061577;28;20025;-90
2023/06/19 00:42:08;;;;;;;4.57;2.33;;;23.50;97.20;;;;;;5072187;28;20024;-90
2023/06/19 00:44:34;;;;;;;2.58;2.08;;;23.10;97.20;;;;;;5072343;28;20043;-90
2023/06/19 00:47:02;;;;;;;3.65;2.50;;;22.60;97.30;;;;;;5073472;28;20132;-90
2023/06/19 00:49:30;;;;;;;27.25;2.83;;;22.50;97.40;;;;;;5075779;28;20029;-90
2023/06/19 00:51:56;;;;;;;5.00;2.20;;;22.50;98.00;;;;;;5076036;28;20074;-90
2023/06/19 00:54:22;;;;;;;5.95;2.38;;;22.50;98.20;;;;;;5077666;28;20031;-89
2023/06/19 00:56:48;;;;;;;13.75;3.13;;;22.40;98.50;;;;;;5075296;28;20020;-90
2023/06/19 00:59:18;;;;;;;3.08;2.75;;;22.60;98.70;;;;;;5075260;28;20105;-90
2023/06/19 01:01:45;;;;;;;3.08;2.78;;;22.40;99.00;;;;;;5075954;28;20031;-90
2023/06/19 01:04:11;;;;;;;9.80;2.50;;;22.40;99.00;;;;;;5075390;28;20143;-91
2023/06/19 01:06:52;;;;;;;2.97;2.45;;;22.30;99.20;;;;;;5075919;28;20484;-91
2023/06/19 01:09:20;;;;;;;3.88;2.65;;;23.00;99.40;;;;;;5075147;28;20089;-91
2023/06/19 01:11:52;;;;;;;3.00;2.75;;;22.30;99.50;;;;;;5075363;28;20029;-92
2023/06/19 01:14:35;;;;;;;2.95;2.70;;;22.20;99.90;;;;;;5076112;28;20041;-90
2023/06/19 01:17:02;;;;;;;3.50;2.88;;;22.20;99.80;;;;;;5075026;28;20024;-90
2023/06/19 01:19:30;;;;;;;2.88;2.65;;;22.10;99.90;;;;;;5075477;28;20024;-90
2023/06/19 01:21:55;;;;;;;2.80;2.58;;;22.10;99.90;;;;;;5075767;28;20031;-91
2023/06/19 01:24:21;;;;;;;4.50;2.70;;;22.10;99.90;;;;;;5075946;28;20028;-90
2023/06/19 01:26:47;;;;;;;3.45;2.80;;;22.00;99.90;;;;;;5075192;28;20036;-90
2023/06/19 01:29:15;;;;;;;7.57;3.70;;;22.10;99.90;;;;;;5075649;28;20200;-90
2023/06/19 01:32:28;;;;;;;3.33;2.97;;;22.10;99.90;;;;;;5064457;22;20556;-90
2023/06/19 01:34:56;;;;;;;4.70;3.05;;;22.10;99.90;;;;;;4974063;28;20037;-91
2023/06/19 01:40:04;;;;;;;7.30;4.10;;;22.00;99.90;;;;;;5080832;22;20128;-90
2023/06/19 01:42:30;;;;;;;10.15;3.30;;;22.00;99.90;;;;;;5075687;28;20079;-90
2023/06/19 01:45:09;;;;;;;3.40;3.10;;;22.80;99.90;;;;;;5074378;28;20040;-88
2023/06/19 01:47:55;;;;;;;5.95;4.00;;;22.00;99.90;;;;;;5091111;28;20033;-90
2023/06/19 01:50:22;;;;;;;4.32;3.95;;;22.60;99.90;;;;;;5077866;28;20032;-90
2023/06/19 01:52:59;;;;;;;4.70;4.13;;;22.70;99.90;;;;;;5075399;28;20388;-91
2023/06/19 01:55:25;;;;;;;4.50;4.13;;;22.00;99.90;;;;;;5075762;28;20024;-91
2023/06/19 01:57:51;;;;;;;4.30;3.90;;;22.00;99.90;;;;;;5074203;28;20020;-91
2023/06/19 02:00:37;;;;;;;5.18;4.78;;;22.20;99.90;;;;;;5077136;28;20032;-90
2023/06/19 02:03:03;;;;;;;4.88;4.03;;;22.00;99.90;;;;;;5077219;28;20032;-91
2023/06/19 02:05:44;;;;;;;4.50;4.20;;;21.90;99.90;;;;;;5075003;28;20029;-91
2023/06/19 02:08:10;;;;;;;5.22;4.40;;;22.80;99.90;;;;;;5091964;22;20079;-89
2023/06/19 02:10:54;;;;;;;6.25;4.68;;;22.10;99.90;;;;;;5074832;28;20472;-90
2023/06/19 02:13:19;;;;;;;7.50;4.47;;;22.70;99.90;;;;;;5073488;28;20476;-92
2023/06/19 02:16:06;;;;;;;6.07;4.55;;;22.50;99.90;;;;;;5074843;28;20031;-90
2023/06/19 02:18:32;;;;;;;4.88;4.47;;;21.30;99.90;;;;;;5074760;28;20033;-91
2023/06/19 02:21:23;;;;;;;5.38;4.97;;;22.30;99.90;;;;;;5075721;28;20025;-91
2023/06/19 02:23:49;;;;;;;6.18;5.57;;;22.20;99.90;;;;;;5074657;28;20123;-92
2023/06/19 02:26:33;;;;;;;6.40;5.80;;;21.90;99.90;;;;;;5074524;28;20143;-90
2023/06/19 02:28:59;;;;;;;5.60;5.22;;;22.70;99.90;;;;;;5073217;28;20353;-91
2023/06/19 02:31:44;;;;;;;12.48;6.50;;;22.60;99.90;;;;;;5074398;28;20013;-91
2023/06/19 02:34:10;;;;;;;6.80;6.13;;;22.60;99.90;;;;;;5074003;28;20067;-90
2023/06/19 02:36:36;;;;;;;8.85;6.72;;;22.40;99.90;;;;;;5074369;28;20040;-91
2023/06/19 02:39:22;;;;;;;6.60;6.00;;;22.00;99.90;;;;;;5074151;28;20115;-90
2023/06/19 02:41:48;;;;;;;7.15;6.45;;;23.40;99.90;;;;;;5073775;28;20076;-90
2023/06/19 02:44:14;;;;;;;7.47;6.88;;;22.20;99.90;;;;;;5074242;28;20029;-91
2023/06/19 02:46:58;;;;;;;10.15;6.75;;;21.10;99.90;;;;;;5073689;28;20094;-90
2023/06/19 02:49:23;;;;;;;8.85;7.93;;;21.70;99.90;;;;;;5074870;28;20088;-91
2023/06/19 02:51:49;;;;;;;7.30;6.68;;;21.70;99.90;;;;;;5074180;28;20031;-90
2023/06/19 02:54:34;;;;;;;7.90;7.20;;;22.70;99.90;;;;;;5074187;28;20020;-92
2023/06/19 02:57:00;;;;;;;8.43;7.07;;;21.60;99.90;;;;;;5073873;28;20036;-91
2023/06/19 02:59:25;;;;;;;7.85;7.25;;;22.40;99.90;;;;;;5079682;28;20017;-91
2023/06/19 03:02:13;;;;;;;7.90;7.30;;;22.20;99.90;;;;;;5086259;28;20029;-91
2023/06/19 03:04:41;;;;;;;9.05;8.20;;;21.50;99.90;;;;;;5085971;28;20119;-90
2023/06/19 03:07:22;;;;;;;10.57;9.68;;;21.90;99.90;;;;;;5090053;28;20021;-90
2023/06/19 03:09:49;;;;;;;16.35;11.43;;;22.30;99.90;;;;;;5084916;28;20024;-90
2023/06/19 03:12:15;;;;;;;12.43;11.23;;;22.30;99.90;;;;;;5092350;28;20024;-91
2023/06/19 03:14:59;;;;;;;14.23;13.00;;;21.50;99.90;;;;;;5090810;28;20005;-91
2023/06/19 03:17:24;;;;;;;15.02;13.65;;;21.40;99.90;;;;;;5089470;28;20024;-91
2023/06/19 03:19:50;;;;;;;16.38;14.88;;;22.40;99.90;;;;;;5076204;28;20020;-91
2023/06/19 03:22:34;;;;;;;16.30;14.70;;;22.10;99.90;;;;;;5085410;28;20117;-89
2023/06/19 03:24:59;;;;;;;15.32;13.88;;;21.30;99.90;;;;;;5087279;28;20037;-89
2023/06/19 03:27:26;;;;;;;16.33;14.70;;;22.00;99.90;;;;;;5080770;28;20024;-90
2023/06/19 03:30:12;;;;;;;18.00;16.17;;;21.80;99.90;;;;;;5073046;28;20028;-89
2023/06/19 03:32:38;;;;;;;16.38;14.75;;;21.20;99.90;;;;;;5074046;28;20024;-90
2023/06/19 03:35:05;;;;;;;17.83;15.98;;;20.80;99.90;;;;;;5073080;28;20353;-89
2023/06/19 03:37:50;;;;;;;16.95;15.25;;;21.20;99.90;;;;;;5072653;28;20029;-90
2023/06/19 03:40:16;;;;;;;17.48;14.60;;;21.20;99.90;;;;;;5072624;28;20024;-91
2023/06/19 03:42:41;;;;;;;16.17;14.52;;;21.20;99.90;;;;;;5073016;28;20486;-90
2023/06/19 03:45:36;;;;;;;16.65;14.02;;;21.60;99.90;;;;;;5073187;28;20036;-90
2023/06/19 03:48:20;;;;;;;13.70;12.40;;;21.10;99.90;;;;;;5074001;28;20025;-90
2023/06/19 03:50:46;;;;;;;16.23;13.73;;;21.70;99.90;;;;;;5073182;28;20064;-90
2023/06/19 03:53:12;;;;;;;15.27;13.70;;;21.90;99.90;;;;;;5084385;28;20032;-90
2023/06/19 03:55:37;;;;;;;18.05;12.88;;;21.20;99.90;;;;;;5075433;28;20117;-92
2023/06/19 03:58:18;;;;;;;13.27;11.88;;;21.10;99.90;;;;;;5072687;28;20024;-91
2023/06/19 04:00:44;;;;;;;13.55;10.10;;;22.20;99.90;;;;;;5073138;28;20031;-90
2023/06/19 04:03:10;;;;;;;11.63;8.98;;;21.20;99.90;;;;;;5072524;28;20492;-91
2023/06/19 04:05:54;;;;;;;8.68;7.88;;;20.90;99.90;;;;;;5072493;28;20032;-91
2023/06/19 04:08:19;;;;;;;11.88;6.07;;;20.90;99.90;;;;;;5070764;28;20044;-89
2023/06/19 04:10:45;;;;;;;5.30;4.80;;;21.60;99.90;;;;;;5079081;28;20073;-90
2023/06/19 04:13:11;;;;;;;5.10;4.57;;;21.70;99.90;;;;;;5072789;28;20361;-90
2023/06/19 04:15:55;;;;;;;4.20;3.90;;;21.00;99.90;;;;;;5069564;28;20107;-89
2023/06/19 04:18:20;;;;;;;5.38;3.65;;;21.80;99.90;;;;;;5062890;28;20075;-91
2023/06/19 04:20:59;;;;;;;5.03;3.95;;;20.90;99.90;;;;;;5059558;28;20048;-92
2023/06/19 04:23:24;;;;;;;4.15;3.60;;;22.00;99.90;;;;;;5074672;28;20036;-91
2023/06/19 04:25:50;;;;;;;6.50;4.13;;;21.70;99.90;;;;;;5076027;28;20116;-90
2023/06/19 04:28:34;;;;;;;5.40;3.33;;;21.20;99.90;;;;;;5063392;28;20024;-90
2023/06/19 04:31:00;;;;;;;3.60;2.63;;;21.00;99.90;;;;;;5056681;28;20043;-91
2023/06/19 04:33:29;;;;;;;3.50;3.20;;;21.80;99.90;;;;;;5057595;28;20112;-91
2023/06/19 04:36:15;;;;;;;4.53;3.50;;;21.70;99.90;;;;;;5071349;28;20036;-92
2023/06/19 04:38:42;;;;;;;5.07;3.75;;;20.80;99.90;;;;;;5061692;28;20031;-92
2023/06/19 04:41:07;;;;;;;5.75;3.38;;;20.00;99.90;;;;;;5056273;28;20028;-93
2023/06/19 04:43:51;;;;;;;4.93;4.47;;;21.60;99.90;;;;;;5059541;28;20037;-92
2023/06/19 04:46:20;;;;;;;7.57;4.80;;;20.50;99.90;;;;;;5068757;28;20059;-87
2023/06/19 04:48:50;;;;;;;5.25;4.53;;;20.90;99.90;;;;;;5070624;28;20487;-89
2023/06/19 04:51:26;;;;;;;6.22;5.63;;;21.30;99.90;;;;;;5074431;28;20020;-89
2023/06/19 04:53:51;;;;;;;9.65;5.28;;;21.00;99.90;;;;;;5074393;28;20033;-88
2023/06/19 04:56:17;;;;;;;7.70;6.43;;;20.90;99.90;;;;;;5072860;28;20021;-87
2023/06/19 04:58:46;;;;;;;8.43;6.70;;;21.30;99.90;;;;;;5073899;28;20034;-88
2023/06/19 05:01:16;;;;;;;7.63;6.72;;;20.80;99.90;;;;;;5068968;28;20029;-88
2023/06/19 05:03:46;;;;;;;6.65;5.60;;;21.40;99.90;;;;;;5060528;28;20060;-87
2023/06/19 05:06:14;;;;;;;5.72;5.20;;;20.70;99.90;;;;;;5057013;28;20071;-88
2023/06/19 05:08:40;;;;;;;22.70;5.95;;;21.60;99.90;;;;;;5054369;28;20400;-88
2023/06/19 05:11:05;;;;;;;22.60;5.10;;;21.20;99.90;;;;;;5054961;28;20025;-89
2023/06/19 05:13:31;;;;;;;7.30;6.30;;;20.60;99.90;;;;;;5055446;28;20123;-87
2023/06/19 05:15:56;;;;;;;6.10;5.50;;;20.80;99.90;;;;;;5053967;28;20644;-87
2023/06/19 05:18:22;;;;;;;7.60;5.20;;;20.50;99.90;;;;;;5065612;28;20119;-87
2023/06/19 05:20:57;;;;;;;4.65;4.18;;;21.50;99.90;;;;;;5065849;28;20067;-88
2023/06/19 05:23:23;;;;;;;5.10;4.57;;;21.20;99.90;;;;;;5062689;28;20163;-87
2023/06/19 05:25:48;;;;;;;7.93;4.20;;;20.50;99.90;;;;;;5064396;28;20059;-87
2023/06/19 05:28:14;;;;;;;4.88;4.15;;;21.20;99.90;;;;;;5064301;28;20021;-87
2023/06/19 05:30:40;;;;;;;4.20;3.55;;;20.70;99.90;;;;;;5057196;28;20036;-86
2023/06/19 05:33:05;;;;;;;6.50;3.80;;;20.60;99.90;;;;;;5054197;28;20037;-85
2023/06/19 05:35:31;;;;;;;5.65;4.65;;;20.60;99.90;;;;;;5054042;28;20083;-86
2023/06/19 05:37:57;;;;;;;5.32;4.93;;;20.70;99.90;;;;;;5053318;28;20033;-85
2023/06/19 05:40:23;;;;;;;5.80;5.30;;;20.70;99.90;;;;;;5053959;28;20041;-85
2023/06/19 05:42:48;;;;;;;6.00;5.43;;;20.70;99.90;;;;;;5052246;28;20036;-85
2023/06/19 05:45:14;;;;;;;8.88;7.20;;;20.50;99.90;;;;;;5051429;28;20112;-85
2023/06/19 05:47:40;;;;;;;8.18;6.82;;;20.60;99.90;;;;;;5051939;28;20021;-85
2023/06/19 05:50:05;;;;;;;10.07;7.40;;;20.70;99.90;;;;;;5053326;28;20488;-91
2023/06/19 05:52:31;;;;;;;8.80;8.10;;;20.60;99.90;;;;;;5053871;28;20024;-87
2023/06/19 05:54:58;;;;;;;9.68;8.77;;;20.70;99.90;;;;;;5053605;28;20071;-88
2023/06/19 05:57:23;;;;;;;10.35;9.35;;;20.70;99.90;;;;;;5053955;28;20039;-87
2023/06/19 05:59:52;;;;;;;12.43;11.23;;;20.70;99.90;;;;;;5054733;28;20100;-87
2023/06/19 06:02:19;;;;;;;16.38;11.95;;;20.70;99.90;;;;;;5059224;28;20087;-87
2023/06/19 06:04:45;;;;;;;15.15;12.82;;;20.60;99.90;;;;;;5052731;28;20069;-86
2023/06/19 06:07:11;;;;;;;13.55;11.93;;;20.90;99.90;;;;;;5056126;28;20056;-86
2023/06/19 06:09:37;;;;;;;14.70;13.32;;;20.60;99.90;;;;;;5063748;28;20111;-87
2023/06/19 06:12:03;;;;;;;16.17;14.55;;;20.50;99.90;;;;;;5066016;28;20029;-88
2023/06/19 06:14:28;;;;;;;16.63;14.20;;;20.50;99.90;;;;;;5064686;28;20086;-88
2023/06/19 06:16:54;;;;;;;16.50;14.75;;;20.50;99.90;;;;;;5061176;28;20063;-88
2023/06/19 06:19:22;;;;;;;18.95;15.90;;;20.40;99.90;;;;;;5060334;28;20082;-89
2023/06/19 06:21:48;;;;;;;17.50;15.70;;;20.40;99.90;;;;;;5053894;28;20032;-87
2023/06/19 06:24:13;;;;;;;19.17;14.93;;;20.50;99.90;;;;;;5061220;28;20036;-89
2023/06/19 06:26:39;;;;;;;21.63;14.60;;;20.40;99.90;;;;;;5070650;28;20016;-84
2023/06/19 06:29:04;;;;;;;16.45;13.88;;;20.40;99.90;;;;;;5071446;28;20101;-83
2023/06/19 06:31:30;;;;;;;15.10;12.95;;;20.50;99.90;;;;;;5064393;28;20017;-83
2023/06/19 06:33:56;;;;;;;13.82;12.48;;;20.40;99.90;;;;;;5051563;28;20025;-83
2023/06/19 06:36:21;;;;;;;13.88;12.25;;;20.50;99.90;;;;;;5053034;28;20109;-83
2023/06/19 06:38:47;;;;;;;20.05;13.73;;;20.40;99.90;;;;;;5060923;28;20075;-83
2023/06/19 06:41:12;;;;;;;14.63;12.55;;;20.50;99.90;;;;;;5057091;28;20074;-82
2023/06/19 06:43:42;;;;;;;14.43;12.98;;;20.20;99.90;;;;;;5052736;28;20389;-84
2023/06/19 06:46:10;;;;;;;15.32;12.80;;;20.30;99.90;;;;;;5052674;28;20028;-85
2023/06/19 06:48:36;;;;;;;17.88;14.60;;;20.20;99.90;;;;;;5052111;28;20103;-83
2023/06/19 06:51:01;;;;;;;22.48;16.05;;;20.30;99.90;;;;;;5058985;28;20480;-85
2023/06/19 06:53:28;;;;;;;23.45;17.65;;;20.30;99.90;;;;;;5072548;28;20094;-85
2023/06/19 06:55:54;;;;;;;23.80;18.73;;;20.30;99.90;;;;;;5072158;28;20020;-83
2023/06/19 06:58:20;;;;;;;22.40;18.55;;;20.30;99.90;;;;;;5074130;28;20035;-90
2023/06/19 07:00:45;;;;;;;19.58;16.75;;;20.30;99.90;;;;;;5074444;28;20016;-87
2023/06/19 07:03:11;;;;;;;20.00;16.83;;;21.00;99.90;;;;;;5072171;28;20451;-84
2023/06/19 07:05:36;;;;;;;21.88;16.35;;;20.40;99.90;;;;;;5069243;28;20040;-90
2023/06/19 07:08:03;;;;;;;21.52;18.65;;;20.30;99.90;;;;;;5069417;28;20123;-84
2023/06/19 07:10:29;;;;;;;27.13;17.92;;;20.30;99.90;;;;;;5060754;28;20017;-84
2023/06/19 07:12:55;;;;;;;22.17;19.52;;;20.30;99.90;;;;;;5058639;28;20174;-84
2023/06/19 07:15:20;;;;;;;24.00;19.38;;;20.60;99.90;;;;;;5060330;28;20073;-84
2023/06/19 07:17:46;;;;;;;24.20;17.92;;;20.50;99.90;;;;;;5057784;28;20078;-82
2023/06/19 07:20:12;;;;;;;21.55;19.15;;;20.60;99.90;;;;;;5063527;28;20152;-84
2023/06/19 07:22:38;;;;;;;23.55;19.58;;;20.50;99.90;;;;;;5069676;28;20153;-84
2023/06/19 07:25:04;;;;;;;25.27;20.42;;;20.40;99.90;;;;;;5070325;28;20426;-84
2023/06/19 07:27:30;;;;;;;23.48;20.25;;;20.40;99.90;;;;;;5070492;28;20020;-84
2023/06/19 07:29:56;;;;;;;27.67;19.38;;;20.40;99.90;;;;;;5069771;28;20380;-84
2023/06/19 07:32:22;;;;;;;30.50;21.52;;;20.50;99.90;;;;;;5071796;28;20024;-84
2023/06/19 07:34:47;;;;;;;22.38;19.77;;;20.40;99.90;;;;;;5071217;28;20100;-84
2023/06/19 07:37:17;;;;;;;26.50;20.83;;;20.50;99.90;;;;;;5070846;28;20513;-85
2023/06/19 07:39:47;;;;;;;23.27;19.58;;;20.40;99.90;;;;;;5072049;28;20033;-84
2023/06/19 07:42:14;;;;;;;;;;;20.50;99.90;;;;;;5072892;28;20115;-84
2023/06/19 07:44:40;;;;;;;25.95;19.33;;;20.70;99.90;;;;;;5071379;28;19919;-84
2023/06/19 07:47:06;;;;;;;23.65;18.23;;;21.10;99.90;;;;;;5072051;28;20021;-84
2023/06/19 07:49:32;;;;;;;27.13;20.05;;;20.70;99.90;;;;;;5072118;28;20480;-84
2023/06/19 07:51:57;;;;;;;24.33;20.13;;;20.70;99.90;;;;;;5071192;28;20066;-84
2023/06/19 07:54:23;;;;;;;24.55;20.00;;;20.70;99.90;;;;;;5072154;28;20020;-84
2023/06/19 07:56:48;;;;;;;21.67;19.35;;;20.70;99.90;;;;;;5074559;28;20021;-84
2023/06/19 07:59:14;;;;;;;28.70;20.67;;;20.80;99.90;;;;;;5075607;28;20020;-84
2023/06/19 08:01:39;;;;;;;23.10;19.05;;;20.80;99.90;;;;;;5075958;28;20028;-83
2023/06/19 08:04:06;;;;;;;21.92;18.00;;;21.30;99.90;;;;;;5076043;28;20134;-83
2023/06/19 08:06:32;;;;;;;24.90;19.73;;;20.80;99.90;;;;;;5075228;28;20016;-82
2023/06/19 08:08:57;;;;;;;21.13;18.80;;;20.80;99.90;;;;;;5075508;28;20392;-82
2023/06/19 08:11:23;;;;;;;21.58;19.23;;;20.80;99.90;;;;;;5075369;28;20021;-83
2023/06/19 08:13:49;;;;;;;27.67;21.48;;;20.80;99.90;;;;;;5075489;28;20039;-83
2023/06/19 08:16:14;;;;;;;25.02;20.77;;;20.70;99.90;;;;;;5075781;28;20027;-83
2023/06/19 08:18:40;;;;;;;28.00;21.45;;;20.90;99.90;;;;;;5074691;28;20029;-83
2023/06/19 08:21:05;;;;;;;25.60;20.98;;;21.10;99.90;;;;;;5075650;28;20021;-85
2023/06/19 08:23:31;;;;;;;25.35;21.52;;;20.90;99.90;;;;;;5075009;28;20551;-85
2023/06/19 08:25:56;;;;;;;28.60;23.48;;;21.00;99.90;;;;;;5060475;28;20028;-85
2023/06/19 08:28:23;;;;;;;26.00;22.23;;;21.00;99.90;;;;;;5074076;28;20515;-84
2023/06/19 08:30:49;;;;;;;23.88;20.98;;;21.00;99.90;;;;;;5073773;28;20039;-84
2023/06/19 08:33:14;;;;;;;25.15;20.83;;;21.00;99.90;;;;;;5074007;28;20399;-83
2023/06/19 08:35:40;;;;;;;29.15;21.42;;;21.00;99.90;;;;;;5074839;28;20047;-83
2023/06/19 08:38:05;;;;;;;25.88;20.45;;;21.20;99.90;;;;;;5074813;28;20029;-84
2023/06/19 08:40:31;;;;;;;26.70;21.15;;;21.00;99.90;;;;;;5073972;28;20044;-84
2023/06/19 08:42:57;;;;;;;25.25;21.58;;;21.00;99.90;;;;;;5074406;28;20078;-85
2023/06/19 08:45:22;;;;;;;23.30;19.58;;;21.00;99.90;;;;;;5074992;28;20028;-83
2023/06/19 08:47:48;;;;;;;27.13;21.38;;;21.40;99.90;;;;;;5074260;28;20028;-83
2023/06/19 08:50:19;;;;;;;27.17;20.77;;;21.10;99.90;;;;;;5061371;28;20102;-84
2023/06/19 08:52:44;;;;;;;28.75;21.75;;;21.10;99.90;;;;;;5053188;28;20056;-84
2023/06/19 08:55:10;;;;;;;24.65;20.75;;;21.00;99.90;;;;;;5053525;28;20068;-84
2023/06/19 08:57:38;;;;;;;25.25;21.05;;;21.60;99.90;;;;;;5053864;28;20045;-85
2023/06/19 09:00:08;;;;;;;25.23;20.83;;;21.10;99.90;;;;;;5053552;28;20464;-85
2023/06/19 09:02:43;;;;;;;23.07;20.10;;;21.10;99.90;;;;;;5053492;28;20040;-85
2023/06/19 09:05:17;;;;;;;22.17;19.85;;;21.20;99.90;;;;;;5054716;28;20303;-84
2023/06/19 09:07:44;;;;;;;25.77;22.52;;;21.20;99.90;;;;;;5052975;28;20069;-84
2023/06/19 09:10:18;;;;;;;25.50;22.05;;;21.20;99.90;;;;;;5053037;28;20110;-85
2023/06/19 09:12:55;;;;;;;27.35;23.30;;;21.20;99.90;;;;;;5052239;28;20437;-83
2023/06/19 09:15:21;;;;;;;26.05;22.20;;;21.20;99.90;;;;;;5052021;28;20500;-83
2023/06/19 09:17:46;;;;;;;27.00;22.38;;;21.20;99.90;;;;;;5052237;28;20021;-85
2023/06/19 09:20:12;;;;;;;24.00;21.50;;;21.10;99.90;;;;;;5052796;28;20021;-83
2023/06/19 09:22:37;;;;;;;26.15;21.67;;;21.30;99.90;;;;;;5051947;28;20032;-83
2023/06/19 09:25:03;;;;;;;26.40;20.17;;;21.20;99.90;;;;;;5053785;28;20033;-85
2023/06/19 09:27:33;;;;;;;25.98;21.35;;;21.20;99.90;;;;;;5054230;28;20032;-83
2023/06/19 09:30:00;;;;;;;28.45;20.52;;;21.50;99.90;;;;;;5053490;28;20067;-83
2023/06/19 09:32:28;;;;;;;23.23;19.58;;;21.20;99.90;;;;;;5054234;28;20100;-83
2023/06/19 09:34:55;;;;;;;24.65;19.27;;;21.20;99.90;;;;;;5054216;28;20025;-84
2023/06/19 09:37:29;;;;;;;21.70;17.73;;;21.50;99.90;;;;;;5053758;28;20362;-83
2023/06/19 09:39:57;;;;;;;22.15;19.17;;;21.20;99.90;;;;;;5053969;28;20032;-83
2023/06/19 09:42:33;;;;;;;22.33;17.95;;;21.20;99.90;;;;;;5054078;28;20444;-85
2023/06/19 09:45:07;;;;;;;26.63;19.15;;;21.20;99.90;;;;;;5052963;28;20033;-85
2023/06/19 09:47:36;;;;;;;23.55;20.50;;;21.20;99.90;;;;;;5054110;28;20070;-83
2023/06/19 09:50:03;;;;;;;23.02;20.63;;;21.30;99.90;;;;;;5052868;28;20479;-85
2023/06/19 09:52:29;;;;;;;22.58;19.90;;;21.30;99.90;;;;;;5053895;28;20025;-84
2023/06/19 09:54:57;;;;;;;22.05;18.58;;;21.30;99.90;;;;;;5053426;28;20477;-84
2023/06/19 09:57:23;;;;;;;22.75;18.65;;;21.40;99.90;;;;;;5052862;28;20028;-84
2023/06/19 09:59:57;;;;;;;20.65;17.52;;;21.30;99.90;;;;;;5053365;28;20460;-84
2023/06/19 10:02:24;;;;;;;20.88;17.55;;;21.30;99.90;;;;;;5053992;28;20037;-84
2023/06/19 10:04:53;;;;;;;21.13;16.45;;;21.30;99.90;;;;;;5072439;28;20037;-84
2023/06/19 10:07:20;;;;;;;22.20;17.45;;;21.40;99.90;;;;;;5073466;28;20025;-84
2023/06/19 10:10:24;;;;;;;21.25;16.52;;;21.40;99.90;;;;;;5073130;28;20036;-84
2023/06/19 10:12:51;;;;;;;18.90;16.77;;;21.40;99.90;;;;;;5057275;28;20036;-84
2023/06/19 10:15:18;;;;;;;18.27;16.38;;;21.40;99.90;;;;;;5073711;28;20021;-84
2023/06/19 10:17:45;;;;;;;18.80;15.73;;;21.40;99.90;;;;;;5073307;28;20060;-84
2023/06/19 10:20:37;;;;;;;18.35;16.08;;;21.50;99.90;;;;;;5072852;28;20035;-84
2023/06/19 10:23:07;;;;;;;16.52;14.95;;;21.50;99.90;;;;;;5071333;28;20032;-82
2023/06/19 10:25:37;;;;;;;;;;;21.60;99.90;;;;;;5062868;28;20021;-87
2023/06/19 10:28:07;;;;;;;20.90;15.23;;;21.50;99.90;;;;;;5056511;28;20269;-86
2023/06/19 10:30:34;;;;;;;14.43;13.00;;;21.60;99.90;;;;;;5065408;28;20025;-86
2023/06/19 10:33:04;;;;;;;14.27;12.68;;;22.30;99.90;;;;;;5066182;28;20097;-86
2023/06/19 10:35:38;;;;;;;16.08;13.02;;;21.60;99.90;;;;;;5073582;28;20016;-85
2023/06/19 10:38:04;;;;;;;14.30;12.90;;;21.70;99.90;;;;;;5071865;28;20024;-85
2023/06/19 10:40:30;;;;;;;15.13;12.70;;;21.70;99.90;;;;;;5065449;28;20078;-84
2023/06/19 10:42:55;;;;;;;17.75;15.55;;;21.70;99.90;;;;;;5065254;28;20024;-85
2023/06/19 10:45:28;;;;;;;15.25;13.65;;;21.80;99.90;;;;;;5071903;28;20535;-84
2023/06/19 10:47:54;;;;;;;16.25;14.25;;;21.70;99.90;;;;;;5070455;28;20074;-85
2023/06/19 10:50:20;;;;;;;16.45;14.73;;;21.80;99.90;;;;;;5059100;28;20020;-84
2023/06/19 10:52:47;;;;;;;14.80;13.30;;;21.80;99.90;;;;;;5071604;28;20021;-85
2023/06/19 10:55:13;;;;;;;19.20;13.88;;;21.80;99.90;;;;;;5067387;28;20478;-85
2023/06/19 10:57:44;;;;;;;20.02;16.27;;;22.00;99.90;;;;;;5070366;28;20483;-85
2023/06/19 11:00:13;;;;;;;17.20;15.38;;;21.90;99.90;;;;;;5070966;28;20337;-85
2023/06/19 11:02:42;;;;;;;16.33;12.50;;;21.90;99.90;;;;;;5063143;28;20033;-85
2023/06/19 11:05:08;;;;;;;16.20;14.10;;;21.90;99.90;;;;;;5064600;28;20037;-85
2023/06/19 11:07:34;;;;;;;15.10;13.50;;;21.90;99.90;;;;;;5060279;28;20043;-85
2023/06/19 11:09:59;;;;;;;13.57;12.38;;;21.90;99.90;;;;;;5062641;28;20032;-85
2023/06/19 11:12:25;;;;;;;19.05;14.02;;;22.50;99.90;;;;;;5061732;28;20017;-85
2023/06/19 11:14:50;;;;;;;13.20;11.95;;;22.30;99.90;;;;;;5060804;28;20043;-85
2023/06/19 11:17:21;;;;;;;17.05;13.15;;;21.90;99.90;;;;;;5062813;28;20329;-85
2023/06/19 11:19:47;;;;;;;14.75;13.38;;;22.20;99.90;;;;;;5056192;28;20479;-85
2023/06/19 11:22:12;;;;;;;16.02;14.43;;;22.00;99.90;;;;;;5060118;28;20107;-85
2023/06/19 11:24:45;;;;;;;16.42;12.50;;;22.50;99.90;;;;;;5063000;28;20408;-85
2023/06/19 11:27:24;;;;;;;14.57;12.07;;;22.00;99.90;;;;;;5055020;28;20057;-87
2023/06/19 11:29:56;;;;;;;16.85;15.13;;;22.00;99.90;;;;;;5051522;28;20377;-85
2023/06/19 11:32:24;;;;;;;16.35;14.70;;;22.10;99.90;;;;;;5068091;28;20056;-85
2023/06/19 11:34:53;;;;;;;16.58;14.88;;;22.10;99.90;;;;;;5072101;28;20113;-85
2023/06/19 11:37:18;;;;;;;14.98;12.60;;;22.20;99.90;;;;;;5071557;28;20112;-86
2023/06/19 11:39:45;;;;;;;16.58;13.18;;;22.10;99.90;;;;;;5071971;28;20098;-85
2023/06/19 11:42:11;;;;;;;15.75;14.25;;;22.20;99.90;;;;;;5072461;28;20028;-85
2023/06/19 11:44:53;;;;;;;14.98;12.90;;;22.20;99.90;;;;;;5071551;28;20059;-85
2023/06/19 11:47:19;;;;;;;15.30;13.80;;;22.20;99.90;;;;;;5072462;28;20086;-84
2023/06/19 11:49:48;;;;;;;15.25;12.13;;;22.20;99.70;;;;;;5071081;28;20112;-85
2023/06/19 11:52:13;;;;;;;15.18;13.68;;;22.80;99.60;;;;;;5071979;28;20108;-85
2023/06/19 11:54:39;;;;;;;14.77;13.35;;;22.40;99.90;;;;;;5071981;28;20051;-85
2023/06/19 11:57:05;;;;;;;14.25;12.82;;;22.30;99.90;;;;;;5071484;28;20469;-84
2023/06/19 11:59:31;;;;;;;14.45;11.43;;;22.30;99.90;;;;;;5072643;28;20056;-85
2023/06/19 12:01:59;;;;;;;13.13;11.88;;;22.30;99.90;;;;;;5071546;28;20078;-85
2023/06/19 12:04:25;;;;;;;15.48;11.40;;;22.40;99.60;;;;;;5052845;28;20214;-85
2023/06/19 12:06:54;;;;;;;12.40;10.35;;;22.40;99.10;;;;;;5068260;28;20103;-85
2023/06/19 12:09:19;;;;;;;10.15;9.25;;;22.60;99.30;;;;;;5060448;28;20053;-86
2023/06/19 12:11:45;;;;;;;12.38;10.07;;;22.30;98.60;;;;;;5054564;28;20029;-85
2023/06/19 12:14:10;;;;;;;12.05;9.50;;;22.70;98.50;;;;;;5051744;28;20024;-85
2023/06/19 12:16:36;;;;;;;11.90;9.57;;;22.50;98.50;;;;;;5051455;28;20017;-86
2023/06/19 12:19:02;;;;;;;11.38;9.80;;;22.50;98.30;;;;;;5050775;28;20053;-85
2023/06/19 12:21:27;;;;;;;12.60;10.75;;;23.10;98.70;;;;;;5051934;28;20017;-85
2023/06/19 12:23:53;;;;;;;11.55;10.45;;;22.60;98.60;;;;;;5051361;28;20037;-86
2023/06/19 12:26:19;;;;;;;13.93;11.10;;;23.40;98.60;;;;;;5051130;28;20112;-84
2023/06/19 12:28:45;;;;;;;12.20;10.30;;;22.60;98.00;;;;;;5051299;28;20493;-87
2023/06/19 12:31:10;;;;;;;10.38;9.10;;;22.70;97.80;;;;;;5052201;28;20036;-85
2023/06/19 12:33:38;;;;;;;12.70;9.23;;;22.90;98.30;;;;;;5051713;28;20025;-85
2023/06/19 12:36:05;;;;;;;10.15;8.77;;;22.60;98.50;;;;;;5060047;28;20017;-82
2023/06/19 12:38:31;;;;;;;12.95;11.02;;;22.60;98.80;;;;;;5061761;28;20028;-81
2023/06/19 12:40:57;;;;;;;13.18;10.65;;;23.00;98.80;;;;;;5060457;28;20480;-82
2023/06/19 12:43:23;;;;;;;11.95;10.15;;;22.80;98.40;;;;;;5063242;28;20067;-81
2023/06/19 12:45:49;;;;;;;11.85;9.90;;;22.80;97.90;;;;;;5063079;22;20144;-86
2023/06/19 12:48:15;;;;;;;12.77;10.95;;;22.80;97.90;;;;;;5051646;28;20103;-81